Latest Weather Observations for Archerfield

IDQ60801

Issued at 5:02 pm EST Saturday 30 July 2016 (issued every 30 minutes, with the page automatically refreshed every 10 minutes)

About weather observations | Map of weather stations | Latest weather observations for QLD | Other Formats
Station Details ID: 040211 Name: ARCHERFIELD AIRPORT Lat: -27.57 Lon: 153.01 Height: 12.5 m
Data from the previous 72 hours. | See also: Recent months at Archerfield
Date/Time
EST
Temp
°C
App
Temp
°C
Dew
Point
°C
Rel
Hum
%
Delta-T
°C
Wind Press
QNH
hPa
Press
MSL
hPa
Rain since
9am
mm
Dir  Spd
km/h
Gust
km/h
Spd
kts
Gust
kts
30/05:00pm 19.8 16.0 5.8 40 6.9 E 15 20 8 11 1018.4 1018.4 0.0
30/04:30pm 21.2 18.0 5.1 35 7.9 SE 11 20 6 11 1018.2 1018.2 0.0
30/04:00pm 22.1 19.5 3.3 29 9.0 SW 6 11 3 6 1018.1 1018.1 0.0
30/03:30pm 23.1 21.6 3.1 27 9.6 CALM 0 7 0 4 1018.2 1018.2 0.0
30/03:00pm 22.9 21.2 3.9 29 9.2 NNW 2 9 1 5 1018.1 1018.1 0.0
30/02:30pm 22.1 19.5 3.3 29 9.0 NNW 6 11 3 6 1018.2 1018.2 0.0
30/02:00pm 22.1 19.4 3.7 30 8.9 WNW 7 11 4 6 1018.3 1018.3 0.0
30/01:30pm 21.0 18.4 4.1 33 8.2 SSE 7 13 4 7 1018.5 1018.5 0.0
30/01:00pm 21.3 18.0 4.8 34 8.1 WSW 11 15 6 8 1019.0 1019.0 0.0
30/12:30pm 21.0 18.3 5.8 37 7.6 WNW 9 15 5 8 1019.3 1019.3 0.0
30/12:00pm 19.7 16.6 5.4 39 7.0 WSW 11 19 6 10 1019.8 1019.8 0.0
30/11:30am 19.3 15.6 6.1 42 6.5 W 15 26 8 14 1020.4 1020.4 0.0
30/11:00am 18.5 14.8 6.4 45 6.0 WSW 15 20 8 11 1020.8 1020.8 0.0
30/10:30am 17.7 13.8 6.9 49 5.4 WSW 17 20 9 11 1021.1 1021.1 0.0
30/10:00am 16.8 13.2 6.9 52 4.9 WSW 15 19 8 10 1021.4 1021.4 0.0
30/09:30am 15.7 11.7 6.7 55 4.4 WSW 17 22 9 12 1021.4 1021.4 0.0
30/09:00am 15.0 11.0 6.8 58 4.0 W 17 26 9 14 1021.6 1021.6 0.0
30/08:30am 13.9 10.7 7.0 63 3.4 WSW 13 19 7 10 1021.6 1021.6 0.0
30/08:00am 12.7 10.4 7.6 71 2.5 WSW 9 13 5 7 1021.3 1021.3 0.0
30/07:30am 10.9 8.9 7.2 78 1.8 SSW 7 9 4 5 1020.9 1020.9 0.0
30/07:00am 9.3 8.4 6.0 80 1.5 CALM 0 0 0 0 1020.7 1020.7 0.0
30/06:30am 8.8 6.7 5.9 82 1.3 WSW 6 9 3 5 1020.5 1020.5 0.0
30/06:00am 6.9 5.7 4.4 84 1.1 CALM 0 6 0 3 1020.1 1020.1 0.0
30/05:30am 6.6 3.9 3.8 82 1.2 S 7 7 4 4 1020.0 1020.0 0.0
30/05:00am 8.0 5.1 4.8 80 1.4 S 9 9 5 5 1019.8 1019.8 0.0
30/04:30am 8.6 5.9 5.7 82 1.3 S 9 11 5 6 1019.6 1019.6 0.0
30/04:00am 8.1 5.5 6.1 87 0.9 S 9 11 5 6 1019.4 1019.4 0.0
30/03:30am 8.2 5.5 5.7 84 1.1 S 9 11 5 6 1019.5 1019.5 0.0
30/03:00am 9.7 7.1 6.1 78 1.7 S 9 11 5 6 1019.7 1019.7 0.0
30/02:30am 9.9 6.8 5.7 75 1.9 SSW 11 11 6 6 1019.9 1019.9 0.0
30/02:00am 11.0 8.2 6.9 76 1.9 SSW 11 13 6 7 1020.1 1020.1 0.0
30/01:30am 9.7 7.4 7.5 86 1.0 SSW 9 11 5 6 1020.3 1020.3 0.0
30/01:00am 11.3 11.0 8.7 84 1.3 CALM 0 0 0 0 1020.5 1020.5 0.0
30/12:30am 11.8 11.3 9.4 85 1.2 WNW 2 6 1 3 1020.7 1020.7 0.0
30/12:00am 10.8 8.3 8.2 84 1.3 WNW 11 13 6 7 1020.9 1020.9 0.0
 
Date/Time
EST
Temp
°C
App
Temp
°C
Dew
Point
°C
Rel
Hum
%
Delta-T
°C
Wind Press
QNH
hPa
Press
MSL
hPa
Rain since
9am
mm
Dir  Spd
km/h
Gust
km/h
Spd
kts
Gust
kts
29/11:30pm 10.8 8.9 9.2 90 0.8 W 9 11 5 6 1021.0 1021.0 0.0
29/11:00pm 11.7 11.4 8.7 82 1.5 CALM 0 0 0 0 1020.7 1020.7 0.0
29/10:30pm 13.1 11.9 9.5 79 1.8 NNE 6 7 3 4 1020.8 1020.8 0.0
29/10:00pm 13.2 11.9 9.1 76 2.1 N 6 7 3 4 1020.8 1020.8 0.0
29/09:30pm 13.3 11.8 9.2 76 2.1 N 7 11 4 6 1020.7 1020.7 0.0
29/09:00pm 13.3 11.7 8.6 73 2.3 N 7 11 4 6 1020.7 1020.7 0.0
29/08:30pm 14.6 12.0 9.2 70 2.8 N 13 15 7 8 1020.7 1020.7 0.0
29/08:00pm 14.4 11.8 9.4 72 2.6 N 13 15 7 8 1020.4 1020.4 0.0
29/07:30pm 14.8 12.5 9.0 68 3.0 NNE 11 13 6 7 1020.4 1020.4 0.0
29/07:00pm 15.0 12.6 8.7 66 3.2 NNE 11 13 6 7 1020.2 1020.2 0.0
29/06:30pm 14.9 12.1 8.4 65 3.3 N 13 15 7 8 1019.9 1019.9 0.0
29/06:00pm 16.3 13.0 8.0 58 4.2 NNE 15 19 8 10 1019.7 1019.7 0.0
29/05:30pm 17.4 13.7 8.0 54 4.8 NNE 17 20 9 11 1019.4 1019.4 0.0
29/05:00pm 18.9 15.2 8.0 49 5.6 NNE 17 22 9 12 1019.3 1019.3 0.0
29/04:30pm 21.0 17.2 7.6 42 6.9 NNE 17 22 9 12 1019.1 1019.1 0.0
29/04:00pm 22.3 20.0 7.3 38 7.7 NNE 9 15 5 8 1019.1 1019.1 0.0
29/03:30pm 22.6 20.4 6.4 35 8.3 NNW 7 11 4 6 1019.1 1019.1 0.0
29/03:00pm 22.9 21.4 6.6 35 8.3 WNW 4 7 2 4 1019.3 1019.3 0.0
29/02:30pm 23.0 20.5 6.7 35 8.4 WNW 9 19 5 10 1019.5 1019.5 0.0
29/02:00pm 22.2 19.5 5.6 34 8.3 WNW 9 15 5 8 1019.9 1019.9 0.0
29/01:30pm 21.9 18.9 5.8 35 8.1 WNW 11 17 6 9 1020.3 1020.3 0.0
29/01:00pm 21.6 18.6 5.9 36 7.9 WSW 11 17 6 9 1020.7 1020.7 0.0
29/12:30pm 21.4 17.8 4.9 34 8.1 WSW 13 20 7 11 1021.2 1021.2 0.0
29/12:00pm 21.1 17.2 5.5 36 7.7 SW 15 22 8 12 1021.9 1021.9 0.0
29/11:30am 20.3 17.1 7.0 42 6.8 WSW 13 20 7 11 1022.5 1022.5 0.0
29/11:00am 18.9 15.7 6.7 45 6.1 WSW 13 19 7 10 1023.1 1023.1 0.0
29/10:30am 17.9 14.7 6.7 48 5.6 WSW 13 20 7 11 1023.5 1023.5 0.0
29/10:00am 17.1 13.4 6.3 49 5.3 WSW 15 20 8 11 1023.9 1023.9 0.0
29/09:30am 16.0 12.8 7.0 55 4.4 WSW 13 17 7 9 1024.1 1024.1 0.0
29/09:00am 14.4 11.4 7.7 64 3.3 WSW 13 17 7 9 1024.2 1024.2 0.0
29/08:30am 12.6 9.6 7.7 72 2.4 WSW 13 17 7 9 1024.2 1024.2 0.0
29/08:00am 10.7 8.7 6.1 73 2.1 SSW 6 9 3 5 1024.0 1024.0 0.0
29/07:30am 9.9 7.6 5.9 76 1.8 S 7 9 4 5 1023.9 1023.9 0.0
29/07:00am 8.6 6.2 5.2 79 1.5 S 7 9 4 5 1023.7 1023.7 0.0
29/06:30am 7.3 4.8 5.0 85 1.0 S 7 7 4 4 1023.7 1023.7 0.0
29/06:00am 6.5 4.1 4.3 86 0.9 S 6 9 3 5 1023.4 1023.4 0.0
29/05:30am 7.4 4.7 5.4 87 0.9 SSW 9 11 5 6 1022.9 1022.9 0.0
29/05:00am 6.9 4.0 4.9 87 0.9 SSW 9 11 5 6 1022.7 1022.7 0.0
29/04:30am 7.0 4.5 4.5 84 1.1 S 7 9 4 5 1022.7 1022.7 0.0
29/04:00am 8.4 5.5 6.4 87 0.9 SSE 11 13 6 7 1022.4 1022.4 0.0
29/03:30am 8.8 6.4 6.8 87 0.9 S 9 11 5 6 1022.5 1022.5 0.0
29/03:00am 9.0 6.5 6.4 84 1.2 S 9 11 5 6 1022.5 1022.5 0.0
29/02:30am 8.6 6.1 6.7 88 0.9 S 9 11 5 6 1022.7 1022.7 0.0
29/02:00am 9.2 7.3 7.5 89 0.8 SSW 7 9 4 5 1022.8 1022.8 0.0
29/01:30am 9.1 6.7 6.9 86 1.0 S 9 11 5 6 1022.7 1022.7 0.0
29/01:00am 9.6 7.4 7.9 89 0.8 SSW 9 11 5 6 1022.7 1022.7 0.0
29/12:30am 9.0 6.7 7.6 91 0.7 SW 9 46 5 25 1022.6 1022.6 0.0
29/12:00am 9.1 8.1 7.2 88 0.9 S 2 7 1 4 1022.7 1022.7 0.0
 
Date/Time
EST
Temp
°C
App
Temp
°C
Dew
Point
°C
Rel
Hum
%
Delta-T
°C
Wind Press
QNH
hPa
Press
MSL
hPa
Rain since
9am
mm
Dir  Spd
km/h
Gust
km/h
Spd
kts
Gust
kts
28/11:30pm 9.9 8.2 7.7 86 1.1 S 6 9 3 5 1022.8 1022.8 0.0
28/11:00pm 9.3 8.6 6.9 85 1.1 CALM 0 0 0 0 1023.0 1023.0 0.0
28/10:30pm 10.9 9.4 8.5 85 1.2 S 6 7 3 4 1023.2 1023.2 0.0
28/10:00pm 11.5 11.1 8.2 80 1.6 CALM 0 0 0 0 1023.4 1023.4 0.0
28/09:30pm 12.5 12.2 8.6 77 1.9 CALM 0 0 0 0 1023.4 1023.4 0.0
28/09:00pm 12.9 11.3 8.0 72 2.4 S 6 7 3 4 1023.4 1023.4 0.0
28/08:30pm 13.8 12.3 8.4 70 2.7 SW 6 7 3 4 1023.5 1023.5 0.0
28/08:00pm 14.6 14.1 7.9 64 3.3 CALM 0 6 0 3 1023.4 1023.4 0.0
28/07:30pm 15.2 13.5 8.2 63 3.5 NNE 7 9 4 5 1023.4 1023.4 0.0
28/07:00pm 15.7 15.3 8.2 61 3.8 CALM 0 6 0 3 1023.3 1023.3 0.0
28/06:30pm 16.3 14.6 8.3 59 4.1 ENE 7 9 4 5 1022.9 1022.9 0.0
28/06:00pm 16.4 14.2 7.9 57 4.3 ENE 9 13 5 7 1022.5 1022.5 0.0
28/05:30pm 18.3 15.4 8.0 51 5.3 ENE 13 17 7 9 1022.2 1022.2 0.0
28/05:00pm 19.9 16.9 7.9 46 6.2 ENE 13 17 7 9 1021.9 1021.9 0.0
28/04:30pm 20.8 17.6 8.4 45 6.5 ENE 15 22 8 12 1021.8 1021.8 0.0
28/04:00pm 21.4 18.4 7.6 41 7.1 ENE 13 17 7 9 1021.5 1021.5 0.0
28/03:30pm 22.1 19.2 6.7 37 7.9 NE 11 15 6 8 1021.5 1021.5 0.0
28/03:00pm 21.8 18.2 6.9 38 7.6 NNE 15 20 8 11 1021.4 1021.4 0.0
28/02:30pm 22.0 19.5 6.7 37 7.8 ENE 9 17 5 9 1021.5 1021.5 0.0
28/02:00pm 22.2 20.2 7.2 38 7.7 E 7 19 4 10 1021.6 1021.6 0.0
28/01:30pm 21.5 19.8 5.8 36 7.9 W 4 9 2 5 1021.7 1021.7 0.0
28/01:00pm 21.3 19.1 5.2 35 7.9 NNW 6 9 3 5 1022.3 1022.3 0.0
28/12:30pm 20.4 17.6 5.2 37 7.5 S 9 17 5 9 1022.7 1022.7 0.0
28/12:00pm 19.9 17.0 4.4 36 7.4 WSW 9 15 5 8 1023.2 1023.2 0.0
28/11:30am 19.1 15.8 4.5 38 7.0 WSW 11 17 6 9 1023.7 1023.7 0.0
28/11:00am 18.8 15.6 5.3 41 6.5 WSW 11 17 6 9 1023.9 1023.9 0.0
28/10:30am 17.9 14.9 6.1 46 5.8 SW 11 17 6 9 1024.2 1024.2 0.0
28/10:00am 16.5 13.1 4.2 44 5.7 WSW 11 17 6 9 1024.5 1024.5 0.0
28/09:30am 15.6 11.9 4.6 48 5.1 SW 13 19 7 10 1024.6 1024.6 0.0
28/09:00am 14.5 10.9 4.8 52 4.5 W 13 17 7 9 1024.3 1024.3 0.0
28/08:30am 13.1 9.6 5.3 59 3.6 WSW 13 17 7 9 1024.3 1024.3 0.0
28/08:00am 11.4 8.6 5.1 65 2.9 SW 9 13 5 7 1024.0 1024.0 0.0
28/07:30am 9.0 6.1 4.8 75 1.9 SSW 9 11 5 6 1023.5 1023.5 0.0
28/07:00am 7.2 4.4 3.4 77 1.6 SSW 7 9 4 5 1023.1 1023.1 0.0
28/06:30am 7.2 4.1 3.4 77 1.6 SSW 9 11 5 6 1022.9 1022.9 0.0
28/06:00am 7.1 3.9 3.2 76 1.6 SSW 9 11 5 6 1022.6 1022.6 0.0
28/05:30am 6.9 3.7 3.2 77 1.6 SSW 9 11 5 6 1022.1 1022.1 0.0
28/05:00am 7.2 4.1 3.6 78 1.5 SSW 9 11 5 6 1021.9 1021.9 0.0
28/04:30am 7.4 4.2 3.3 75 1.7 S 9 9 5 5 1021.4 1021.4 0.0
28/04:00am 8.4 5.9 3.8 73 2.0 SW 6 11 3 6 1021.3 1021.3 0.0
28/03:30am 8.5 6.8 3.8 72 2.0 W 2 6 1 3 1021.5 1021.5 0.0
28/03:00am 7.5 5.5 2.4 70 2.1 WSW 2 6 1 3 1021.7 1021.7 0.0
28/02:30am 9.5 6.8 3.9 68 2.5 SW 7 9 4 5 1021.6 1021.6 0.0
28/02:00am 9.0 7.0 4.2 72 2.1 WSW 4 9 2 5 1021.7 1021.7 0.0
28/01:30am 7.2 4.7 4.0 80 1.4 SSW 6 9 3 5 1021.9 1021.9 0.0
28/01:00am 7.2 6.0 4.5 83 1.2 CALM 0 6 0 3 1022.0 1022.0 0.0
28/12:30am 8.0 5.1 4.6 79 1.5 SW 9 11 5 6 1021.7 1021.7 0.0
28/12:00am 9.7 6.7 4.1 68 2.5 S 9 11 5 6 1021.6 1021.6 0.0
 
Date/Time
EST
Temp
°C
App
Temp
°C
Dew
Point
°C
Rel
Hum
%
Delta-T
°C
Wind Press
QNH
hPa
Press
MSL
hPa
Rain since
9am
mm
Dir  Spd
km/h
Gust
km/h
Spd
kts
Gust
kts
27/11:30pm 11.0 8.1 4.7 65 2.8 S 9 11 5 6 1021.5 1021.5 0.0
27/11:00pm 9.9 8.4 5.1 72 2.2 SW 2 9 1 5 1021.3 1021.3 0.0
27/10:30pm 10.2 9.0 4.4 67 2.6 CALM 0 0 0 0 1021.2 1021.2 0.0
27/10:00pm 10.8 9.2 4.7 66 2.7 NNE 2 7 1 4 1021.3 1021.3 0.0
27/09:30pm 11.5 8.8 5.4 66 2.8 S 9 15 5 8 1021.0 1021.0 0.0
27/09:00pm 9.3 6.9 4.3 71 2.2 SSW 6 9 3 5 1020.7 1020.7 0.0
27/08:30pm 11.8 9.6 5.2 64 3.0 S 6 9 3 5 1020.3 1020.3 0.0
27/08:00pm 11.9 8.9 5.8 66 2.8 WSW 11 17 6 9 1019.7 1019.7 0.0
27/07:30pm 11.3 8.6 5.6 68 2.6 SW 9 13 5 7 1019.3 1019.3 0.0
27/07:00pm 14.2 12.0 5.3 55 4.2 SSW 6 7 3 4 1018.7 1018.7 0.0
27/06:30pm 14.5 13.0 5.0 53 4.4 W 2 9 1 5 1018.2 1018.2 0.0
27/06:00pm 15.4 14.1 3.9 46 5.3 CALM 0 0 0 0 1017.8 1017.8 0.0
27/05:30pm 16.0 13.5 3.8 44 5.6 WNW 6 11 3 6 1017.6 1017.6 0.0

Other Formats:

Comma delimited format used in spreadsheet applications
http://www.bom.gov.au/fwo/IDQ60801/IDQ60801.94575.axf

JavaScript Object Notation format (JSON) in row-major order
http://www.bom.gov.au/fwo/IDQ60801/IDQ60801.94575.json